sensor_id;sensor_type;location;lat;lon;timestamp;P1;durP1;ratioP1;P2;durP2;ratioP2
41875;SDS011;27555;50.808;4.402;2022-12-29T00:02:05;1.17;;;0.57;;
41875;SDS011;27555;50.808;4.402;2022-12-29T00:04:31;2.97;;;0.90;;
41875;SDS011;27555;50.808;4.402;2022-12-29T00:06:56;2.33;;;1.05;;
41875;SDS011;27555;50.808;4.402;2022-12-29T00:09:22;2.63;;;0.73;;
41875;SDS011;27555;50.808;4.402;2022-12-29T00:11:48;1.42;;;0.77;;
41875;SDS011;27555;50.808;4.402;2022-12-29T00:14:15;2.67;;;1.10;;
41875;SDS011;27555;50.808;4.402;2022-12-29T00:16:59;5.03;;;0.85;;
41875;SDS011;27555;50.808;4.402;2022-12-29T00:19:25;2.00;;;0.80;;
41875;SDS011;27555;50.808;4.402;2022-12-29T00:22:10;2.35;;;1.00;;
41875;SDS011;27555;50.808;4.402;2022-12-29T00:24:55;2.35;;;0.77;;
41875;SDS011;27555;50.808;4.402;2022-12-29T00:27:30;2.03;;;0.70;;
41875;SDS011;27555;50.808;4.402;2022-12-29T00:30:16;2.00;;;0.55;;
41875;SDS011;27555;50.808;4.402;2022-12-29T00:33:12;1.75;;;0.50;;
41875;SDS011;27555;50.808;4.402;2022-12-29T00:36:23;1.17;;;0.40;;
41875;SDS011;27555;50.808;4.402;2022-12-29T00:38:59;4.78;;;0.75;;
41875;SDS011;27555;50.808;4.402;2022-12-29T00:41:47;1.67;;;0.70;;
41875;SDS011;27555;50.808;4.402;2022-12-29T00:44:31;3.50;;;0.80;;
41875;SDS011;27555;50.808;4.402;2022-12-29T00:46:57;1.35;;;0.43;;
41875;SDS011;27555;50.808;4.402;2022-12-29T00:49:27;1.65;;;0.57;;
41875;SDS011;27555;50.808;4.402;2022-12-29T00:51:56;2.78;;;0.65;;
41875;SDS011;27555;50.808;4.402;2022-12-29T00:54:22;4.78;;;0.60;;
41875;SDS011;27555;50.808;4.402;2022-12-29T00:56:49;3.88;;;1.00;;
41875;SDS011;27555;50.808;4.402;2022-12-29T00:59:16;4.13;;;0.70;;
41875;SDS011;27555;50.808;4.402;2022-12-29T01:01:42;6.10;;;0.88;;
41875;SDS011;27555;50.808;4.402;2022-12-29T01:04:08;2.70;;;0.82;;
41875;SDS011;27555;50.808;4.402;2022-12-29T01:06:35;5.15;;;1.08;;
41875;SDS011;27555;50.808;4.402;2022-12-29T01:09:02;5.32;;;1.00;;
41875;SDS011;27555;50.808;4.402;2022-12-29T01:11:47;3.03;;;0.82;;
41875;SDS011;27555;50.808;4.402;2022-12-29T01:14:12;4.78;;;1.02;;
41875;SDS011;27555;50.808;4.402;2022-12-29T01:16:38;3.10;;;0.60;;
41875;SDS011;27555;50.808;4.402;2022-12-29T01:19:04;2.95;;;1.00;;
41875;SDS011;27555;50.808;4.402;2022-12-29T01:21:29;2.13;;;0.70;;
41875;SDS011;27555;50.808;4.402;2022-12-29T01:23:55;1.92;;;0.60;;
41875;SDS011;27555;50.808;4.402;2022-12-29T01:26:20;3.80;;;0.77;;
41875;SDS011;27555;50.808;4.402;2022-12-29T01:28:46;6.65;;;0.90;;
41875;SDS011;27555;50.808;4.402;2022-12-29T01:31:13;2.67;;;0.98;;
41875;SDS011;27555;50.808;4.402;2022-12-29T01:33:39;1.90;;;0.80;;
41875;SDS011;27555;50.808;4.402;2022-12-29T01:36:07;3.40;;;0.60;;
41875;SDS011;27555;50.808;4.402;2022-12-29T01:38:35;2.13;;;0.70;;
41875;SDS011;27555;50.808;4.402;2022-12-29T01:41:02;3.33;;;1.10;;
41875;SDS011;27555;50.808;4.402;2022-12-29T01:43:47;3.35;;;0.60;;
41875;SDS011;27555;50.808;4.402;2022-12-29T01:46:22;3.53;;;0.82;;
41875;SDS011;27555;50.808;4.402;2022-12-29T01:48:52;1.98;;;0.85;;
41875;SDS011;27555;50.808;4.402;2022-12-29T01:51:23;3.58;;;1.05;;
41875;SDS011;27555;50.808;4.402;2022-12-29T01:53:53;5.55;;;1.40;;
41875;SDS011;27555;50.808;4.402;2022-12-29T01:56:21;2.40;;;0.70;;
41875;SDS011;27555;50.808;4.402;2022-12-29T01:58:48;4.30;;;0.90;;
41875;SDS011;27555;50.808;4.402;2022-12-29T02:01:20;2.35;;;0.50;;
41875;SDS011;27555;50.808;4.402;2022-12-29T02:03:46;2.05;;;0.40;;
41875;SDS011;27555;50.808;4.402;2022-12-29T02:07:16;1.63;;;0.40;;
41875;SDS011;27555;50.808;4.402;2022-12-29T02:09:29;1.02;;;0.40;;
41875;SDS011;27555;50.808;4.402;2022-12-29T02:11:57;3.15;;;0.63;;
41875;SDS011;27555;50.808;4.402;2022-12-29T02:14:24;3.47;;;0.60;;
41875;SDS011;27555;50.808;4.402;2022-12-29T02:19:51;2.63;;;0.50;;
41875;SDS011;27555;50.808;4.402;2022-12-29T02:30:35;4.25;;;1.05;;
41875;SDS011;27555;50.808;4.402;2022-12-29T02:41:59;4.13;;;0.63;;
41875;SDS011;27555;50.808;4.402;2022-12-29T02:44:54;1.42;;;0.50;;
41875;SDS011;27555;50.808;4.402;2022-12-29T02:47:35;1.98;;;0.57;;
41875;SDS011;27555;50.808;4.402;2022-12-29T02:52:34;3.45;;;0.60;;
41875;SDS011;27555;50.808;4.402;2022-12-29T02:55:08;3.85;;;0.55;;
41875;SDS011;27555;50.808;4.402;2022-12-29T02:57:36;2.80;;;0.40;;
41875;SDS011;27555;50.808;4.402;2022-12-29T03:08:06;3.20;;;0.60;;
41875;SDS011;27555;50.808;4.402;2022-12-29T03:11:02;2.55;;;0.40;;
41875;SDS011;27555;50.808;4.402;2022-12-29T03:14:02;2.65;;;0.50;;
41875;SDS011;27555;50.808;4.402;2022-12-29T03:17:00;3.47;;;0.60;;
41875;SDS011;27555;50.808;4.402;2022-12-29T03:19:38;2.78;;;0.60;;
41875;SDS011;27555;50.808;4.402;2022-12-29T03:22:12;3.47;;;0.60;;
41875;SDS011;27555;50.808;4.402;2022-12-29T03:25:06;3.70;;;0.75;;
41875;SDS011;27555;50.808;4.402;2022-12-29T03:27:41;2.58;;;0.47;;
41875;SDS011;27555;50.808;4.402;2022-12-29T03:32:44;4.65;;;0.55;;
41875;SDS011;27555;50.808;4.402;2022-12-29T03:35:14;1.23;;;0.40;;
41875;SDS011;27555;50.808;4.402;2022-12-29T03:40:44;1.77;;;0.50;;
41875;SDS011;27555;50.808;4.402;2022-12-29T03:45:39;15.68;;;0.63;;
41875;SDS011;27555;50.808;4.402;2022-12-29T03:48:05;3.92;;;0.50;;
41875;SDS011;27555;50.808;4.402;2022-12-29T03:50:31;3.20;;;0.50;;
41875;SDS011;27555;50.808;4.402;2022-12-29T03:52:57;2.42;;;0.68;;
41875;SDS011;27555;50.808;4.402;2022-12-29T03:55:22;2.55;;;0.65;;
41875;SDS011;27555;50.808;4.402;2022-12-29T03:57:49;5.82;;;1.23;;
41875;SDS011;27555;50.808;4.402;2022-12-29T04:00:15;7.15;;;1.35;;
41875;SDS011;27555;50.808;4.402;2022-12-29T04:02:41;5.43;;;1.42;;
41875;SDS011;27555;50.808;4.402;2022-12-29T04:05:07;4.97;;;0.93;;
41875;SDS011;27555;50.808;4.402;2022-12-29T04:07:32;9.63;;;1.23;;
41875;SDS011;27555;50.808;4.402;2022-12-29T04:09:58;4.70;;;1.20;;
41875;SDS011;27555;50.808;4.402;2022-12-29T04:12:24;6.10;;;1.25;;
41875;SDS011;27555;50.808;4.402;2022-12-29T04:14:49;1.58;;;0.43;;
41875;SDS011;27555;50.808;4.402;2022-12-29T04:17:15;3.55;;;0.80;;
41875;SDS011;27555;50.808;4.402;2022-12-29T04:19:40;5.28;;;0.98;;
41875;SDS011;27555;50.808;4.402;2022-12-29T04:22:06;5.93;;;0.80;;
41875;SDS011;27555;50.808;4.402;2022-12-29T04:24:31;3.78;;;0.90;;
41875;SDS011;27555;50.808;4.402;2022-12-29T04:26:57;4.90;;;0.65;;
41875;SDS011;27555;50.808;4.402;2022-12-29T04:29:23;4.90;;;1.88;;
41875;SDS011;27555;50.808;4.402;2022-12-29T04:31:48;9.20;;;1.35;;
41875;SDS011;27555;50.808;4.402;2022-12-29T04:34:14;3.78;;;0.80;;
41875;SDS011;27555;50.808;4.402;2022-12-29T04:36:39;4.30;;;0.75;;
41875;SDS011;27555;50.808;4.402;2022-12-29T04:39:06;4.32;;;0.88;;
41875;SDS011;27555;50.808;4.402;2022-12-29T04:41:31;5.97;;;0.60;;
41875;SDS011;27555;50.808;4.402;2022-12-29T04:43:57;4.30;;;1.00;;
41875;SDS011;27555;50.808;4.402;2022-12-29T04:46:23;3.40;;;0.68;;
41875;SDS011;27555;50.808;4.402;2022-12-29T04:48:49;3.65;;;1.02;;
41875;SDS011;27555;50.808;4.402;2022-12-29T04:51:14;5.88;;;1.40;;
41875;SDS011;27555;50.808;4.402;2022-12-29T04:53:44;4.28;;;0.85;;
41875;SDS011;27555;50.808;4.402;2022-12-29T04:56:10;7.97;;;1.35;;
41875;SDS011;27555;50.808;4.402;2022-12-29T04:58:36;8.25;;;0.90;;
41875;SDS011;27555;50.808;4.402;2022-12-29T05:01:02;9.80;;;1.00;;
41875;SDS011;27555;50.808;4.402;2022-12-29T05:03:27;8.90;;;1.85;;
41875;SDS011;27555;50.808;4.402;2022-12-29T05:05:54;8.02;;;1.20;;
41875;SDS011;27555;50.808;4.402;2022-12-29T05:08:20;6.28;;;0.90;;
41875;SDS011;27555;50.808;4.402;2022-12-29T05:10:46;4.38;;;0.95;;
41875;SDS011;27555;50.808;4.402;2022-12-29T05:13:12;7.88;;;0.98;;
41875;SDS011;27555;50.808;4.402;2022-12-29T05:15:38;9.70;;;1.25;;
41875;SDS011;27555;50.808;4.402;2022-12-29T05:18:03;7.03;;;1.58;;
41875;SDS011;27555;50.808;4.402;2022-12-29T05:20:29;8.90;;;1.20;;
41875;SDS011;27555;50.808;4.402;2022-12-29T05:22:54;6.53;;;1.33;;
41875;SDS011;27555;50.808;4.402;2022-12-29T05:25:20;7.30;;;1.70;;
41875;SDS011;27555;50.808;4.402;2022-12-29T05:27:46;5.68;;;0.98;;
41875;SDS011;27555;50.808;4.402;2022-12-29T05:30:11;3.72;;;0.95;;
41875;SDS011;27555;50.808;4.402;2022-12-29T05:32:37;10.85;;;1.63;;
41875;SDS011;27555;50.808;4.402;2022-12-29T05:35:03;11.05;;;1.20;;
41875;SDS011;27555;50.808;4.402;2022-12-29T05:37:29;7.13;;;1.17;;
41875;SDS011;27555;50.808;4.402;2022-12-29T05:39:54;8.35;;;1.15;;
41875;SDS011;27555;50.808;4.402;2022-12-29T05:42:20;6.10;;;0.98;;
41875;SDS011;27555;50.808;4.402;2022-12-29T05:44:45;9.20;;;0.98;;
41875;SDS011;27555;50.808;4.402;2022-12-29T05:47:11;8.57;;;1.42;;
41875;SDS011;27555;50.808;4.402;2022-12-29T05:49:37;7.07;;;1.75;;
41875;SDS011;27555;50.808;4.402;2022-12-29T05:52:02;8.95;;;1.48;;
41875;SDS011;27555;50.808;4.402;2022-12-29T05:54:28;11.35;;;1.63;;
41875;SDS011;27555;50.808;4.402;2022-12-29T05:56:53;6.30;;;1.30;;
41875;SDS011;27555;50.808;4.402;2022-12-29T05:59:19;8.77;;;1.27;;
41875;SDS011;27555;50.808;4.402;2022-12-29T06:01:45;6.82;;;1.40;;
41875;SDS011;27555;50.808;4.402;2022-12-29T06:04:10;9.90;;;1.40;;
41875;SDS011;27555;50.808;4.402;2022-12-29T06:06:36;10.98;;;1.70;;
41875;SDS011;27555;50.808;4.402;2022-12-29T06:09:02;7.07;;;1.27;;
41875;SDS011;27555;50.808;4.402;2022-12-29T06:11:27;13.18;;;1.55;;
41875;SDS011;27555;50.808;4.402;2022-12-29T06:13:53;6.57;;;1.77;;
41875;SDS011;27555;50.808;4.402;2022-12-29T06:16:18;5.95;;;1.10;;
41875;SDS011;27555;50.808;4.402;2022-12-29T06:18:44;5.85;;;1.00;;
41875;SDS011;27555;50.808;4.402;2022-12-29T06:21:10;7.97;;;1.75;;
41875;SDS011;27555;50.808;4.402;2022-12-29T06:23:35;5.68;;;1.20;;
41875;SDS011;27555;50.808;4.402;2022-12-29T06:26:01;4.32;;;1.15;;
41875;SDS011;27555;50.808;4.402;2022-12-29T06:28:26;14.23;;;2.90;;
41875;SDS011;27555;50.808;4.402;2022-12-29T06:30:52;9.57;;;2.17;;
41875;SDS011;27555;50.808;4.402;2022-12-29T06:33:17;10.07;;;2.20;;
41875;SDS011;27555;50.808;4.402;2022-12-29T06:35:43;9.27;;;1.30;;
41875;SDS011;27555;50.808;4.402;2022-12-29T06:38:10;11.90;;;1.50;;
41875;SDS011;27555;50.808;4.402;2022-12-29T06:40:36;10.32;;;2.00;;
41875;SDS011;27555;50.808;4.402;2022-12-29T06:43:01;14.32;;;1.98;;
41875;SDS011;27555;50.808;4.402;2022-12-29T06:45:27;10.05;;;1.92;;
41875;SDS011;27555;50.808;4.402;2022-12-29T06:47:53;8.05;;;1.38;;
41875;SDS011;27555;50.808;4.402;2022-12-29T06:50:18;7.03;;;1.42;;
41875;SDS011;27555;50.808;4.402;2022-12-29T06:52:44;4.57;;;1.20;;
41875;SDS011;27555;50.808;4.402;2022-12-29T06:55:09;10.50;;;2.35;;
41875;SDS011;27555;50.808;4.402;2022-12-29T06:57:35;12.30;;;2.55;;
41875;SDS011;27555;50.808;4.402;2022-12-29T07:00:01;7.57;;;1.17;;
41875;SDS011;27555;50.808;4.402;2022-12-29T07:02:27;6.97;;;1.15;;
41875;SDS011;27555;50.808;4.402;2022-12-29T07:04:53;7.22;;;1.10;;
41875;SDS011;27555;50.808;4.402;2022-12-29T07:07:19;8.80;;;1.45;;
41875;SDS011;27555;50.808;4.402;2022-12-29T07:09:45;8.85;;;2.20;;
41875;SDS011;27555;50.808;4.402;2022-12-29T07:12:11;11.07;;;1.60;;
41875;SDS011;27555;50.808;4.402;2022-12-29T07:14:36;10.35;;;1.35;;
41875;SDS011;27555;50.808;4.402;2022-12-29T07:17:02;8.63;;;1.92;;
41875;SDS011;27555;50.808;4.402;2022-12-29T07:19:31;8.35;;;1.88;;
41875;SDS011;27555;50.808;4.402;2022-12-29T07:21:57;13.50;;;3.22;;
41875;SDS011;27555;50.808;4.402;2022-12-29T07:24:22;8.32;;;2.38;;
41875;SDS011;27555;50.808;4.402;2022-12-29T07:26:50;9.43;;;1.60;;
41875;SDS011;27555;50.808;4.402;2022-12-29T07:29:16;9.02;;;1.88;;
41875;SDS011;27555;50.808;4.402;2022-12-29T07:31:42;10.85;;;1.92;;
41875;SDS011;27555;50.808;4.402;2022-12-29T07:34:08;6.60;;;1.92;;
41875;SDS011;27555;50.808;4.402;2022-12-29T07:36:33;7.55;;;1.23;;
41875;SDS011;27555;50.808;4.402;2022-12-29T07:38:59;9.18;;;1.25;;
41875;SDS011;27555;50.808;4.402;2022-12-29T07:41:25;5.95;;;2.03;;
41875;SDS011;27555;50.808;4.402;2022-12-29T07:43:52;9.18;;;2.03;;
41875;SDS011;27555;50.808;4.402;2022-12-29T07:46:17;8.25;;;1.02;;
41875;SDS011;27555;50.808;4.402;2022-12-29T07:48:43;8.27;;;1.73;;
41875;SDS011;27555;50.808;4.402;2022-12-29T07:51:10;9.25;;;2.40;;
41875;SDS011;27555;50.808;4.402;2022-12-29T07:53:36;9.18;;;2.15;;
41875;SDS011;27555;50.808;4.402;2022-12-29T07:56:01;8.73;;;1.55;;
41875;SDS011;27555;50.808;4.402;2022-12-29T07:58:27;14.50;;;2.35;;
41875;SDS011;27555;50.808;4.402;2022-12-29T08:00:53;13.02;;;3.13;;
41875;SDS011;27555;50.808;4.402;2022-12-29T08:03:20;13.30;;;1.73;;
41875;SDS011;27555;50.808;4.402;2022-12-29T08:05:45;10.20;;;2.03;;
41875;SDS011;27555;50.808;4.402;2022-12-29T08:08:11;7.30;;;1.83;;
41875;SDS011;27555;50.808;4.402;2022-12-29T08:10:37;9.55;;;1.15;;
41875;SDS011;27555;50.808;4.402;2022-12-29T08:13:02;10.48;;;1.95;;
41875;SDS011;27555;50.808;4.402;2022-12-29T08:15:28;10.55;;;2.15;;
41875;SDS011;27555;50.808;4.402;2022-12-29T08:17:53;12.73;;;2.95;;
41875;SDS011;27555;50.808;4.402;2022-12-29T08:20:19;11.18;;;1.77;;
41875;SDS011;27555;50.808;4.402;2022-12-29T08:22:44;11.25;;;2.33;;
41875;SDS011;27555;50.808;4.402;2022-12-29T08:25:10;8.93;;;2.25;;
41875;SDS011;27555;50.808;4.402;2022-12-29T08:27:35;9.65;;;1.70;;
41875;SDS011;27555;50.808;4.402;2022-12-29T08:30:01;7.18;;;1.48;;
41875;SDS011;27555;50.808;4.402;2022-12-29T08:32:27;11.43;;;1.20;;
41875;SDS011;27555;50.808;4.402;2022-12-29T08:34:53;11.02;;;1.90;;
41875;SDS011;27555;50.808;4.402;2022-12-29T08:37:19;16.70;;;2.25;;
41875;SDS011;27555;50.808;4.402;2022-12-29T08:39:45;13.45;;;1.58;;
41875;SDS011;27555;50.808;4.402;2022-12-29T08:42:10;14.90;;;1.50;;
41875;SDS011;27555;50.808;4.402;2022-12-29T08:44:36;7.63;;;1.52;;
41875;SDS011;27555;50.808;4.402;2022-12-29T08:47:02;9.57;;;1.55;;
41875;SDS011;27555;50.808;4.402;2022-12-29T08:49:27;5.72;;;1.60;;
41875;SDS011;27555;50.808;4.402;2022-12-29T08:51:53;10.55;;;2.17;;
41875;SDS011;27555;50.808;4.402;2022-12-29T08:54:18;8.13;;;1.38;;
41875;SDS011;27555;50.808;4.402;2022-12-29T08:56:44;9.93;;;2.38;;
41875;SDS011;27555;50.808;4.402;2022-12-29T08:59:09;6.88;;;1.15;;
41875;SDS011;27555;50.808;4.402;2022-12-29T09:01:35;11.20;;;1.73;;
41875;SDS011;27555;50.808;4.402;2022-12-29T09:04:01;12.07;;;1.98;;
41875;SDS011;27555;50.808;4.402;2022-12-29T09:06:27;11.50;;;1.95;;
41875;SDS011;27555;50.808;4.402;2022-12-29T09:08:53;14.00;;;2.30;;
41875;SDS011;27555;50.808;4.402;2022-12-29T09:11:21;10.02;;;1.55;;
41875;SDS011;27555;50.808;4.402;2022-12-29T09:13:48;13.70;;;2.17;;
41875;SDS011;27555;50.808;4.402;2022-12-29T09:16:14;12.07;;;2.03;;
41875;SDS011;27555;50.808;4.402;2022-12-29T09:18:40;10.68;;;2.17;;
41875;SDS011;27555;50.808;4.402;2022-12-29T09:21:06;6.70;;;1.80;;
41875;SDS011;27555;50.808;4.402;2022-12-29T09:23:33;11.40;;;1.58;;
41875;SDS011;27555;50.808;4.402;2022-12-29T09:25:59;15.02;;;3.53;;
41875;SDS011;27555;50.808;4.402;2022-12-29T09:28:25;11.48;;;2.50;;
41875;SDS011;27555;50.808;4.402;2022-12-29T09:30:51;16.02;;;2.80;;
41875;SDS011;27555;50.808;4.402;2022-12-29T09:33:17;14.18;;;1.83;;
41875;SDS011;27555;50.808;4.402;2022-12-29T09:35:44;13.23;;;2.63;;
41875;SDS011;27555;50.808;4.402;2022-12-29T09:38:15;8.75;;;1.65;;
41875;SDS011;27555;50.808;4.402;2022-12-29T09:40:40;8.98;;;1.85;;
41875;SDS011;27555;50.808;4.402;2022-12-29T09:49:05;6.80;;;1.17;;
41875;SDS011;27555;50.808;4.402;2022-12-29T09:51:50;16.50;;;3.13;;
41875;SDS011;27555;50.808;4.402;2022-12-29T09:57:29;7.13;;;1.98;;
41875;SDS011;27555;50.808;4.402;2022-12-29T10:00:19;12.73;;;2.00;;
41875;SDS011;27555;50.808;4.402;2022-12-29T10:02:48;6.78;;;1.33;;
41875;SDS011;27555;50.808;4.402;2022-12-29T10:05:20;15.63;;;2.15;;
41875;SDS011;27555;50.808;4.402;2022-12-29T10:08:05;8.05;;;1.33;;
41875;SDS011;27555;50.808;4.402;2022-12-29T10:10:59;8.23;;;1.55;;
41875;SDS011;27555;50.808;4.402;2022-12-29T10:16:50;15.65;;;2.60;;
41875;SDS011;27555;50.808;4.402;2022-12-29T10:19:48;9.45;;;1.25;;
41875;SDS011;27555;50.808;4.402;2022-12-29T10:24:47;12.25;;;2.60;;
41875;SDS011;27555;50.808;4.402;2022-12-29T10:27:15;8.40;;;1.75;;
41875;SDS011;27555;50.808;4.402;2022-12-29T10:29:52;11.23;;;2.35;;
41875;SDS011;27555;50.808;4.402;2022-12-29T10:32:27;9.85;;;1.85;;
41875;SDS011;27555;50.808;4.402;2022-12-29T10:34:58;10.13;;;2.17;;
41875;SDS011;27555;50.808;4.402;2022-12-29T10:41:00;9.63;;;2.05;;
41875;SDS011;27555;50.808;4.402;2022-12-29T10:43:31;22.63;;;3.40;;
41875;SDS011;27555;50.808;4.402;2022-12-29T10:46:05;15.98;;;1.90;;
41875;SDS011;27555;50.808;4.402;2022-12-29T10:48:35;12.88;;;3.63;;
41875;SDS011;27555;50.808;4.402;2022-12-29T10:51:02;16.33;;;3.30;;
41875;SDS011;27555;50.808;4.402;2022-12-29T10:53:51;13.35;;;3.60;;
41875;SDS011;27555;50.808;4.402;2022-12-29T10:58:52;10.02;;;1.83;;
41875;SDS011;27555;50.808;4.402;2022-12-29T11:01:22;6.10;;;1.75;;
41875;SDS011;27555;50.808;4.402;2022-12-29T11:03:59;16.98;;;2.85;;
41875;SDS011;27555;50.808;4.402;2022-12-29T11:06:28;17.20;;;2.00;;
41875;SDS011;27555;50.808;4.402;2022-12-29T11:08:58;8.50;;;1.67;;
41875;SDS011;27555;50.808;4.402;2022-12-29T11:11:26;16.58;;;2.63;;
41875;SDS011;27555;50.808;4.402;2022-12-29T11:13:58;20.60;;;2.83;;
41875;SDS011;27555;50.808;4.402;2022-12-29T11:16:34;10.43;;;2.60;;
41875;SDS011;27555;50.808;4.402;2022-12-29T11:19:00;13.93;;;2.83;;
41875;SDS011;27555;50.808;4.402;2022-12-29T11:24:00;10.93;;;1.65;;
41875;SDS011;27555;50.808;4.402;2022-12-29T11:26:27;8.75;;;1.85;;
41875;SDS011;27555;50.808;4.402;2022-12-29T11:34:08;11.07;;;1.77;;
41875;SDS011;27555;50.808;4.402;2022-12-29T11:36:33;11.52;;;1.90;;
41875;SDS011;27555;50.808;4.402;2022-12-29T11:39:00;13.15;;;2.20;;
41875;SDS011;27555;50.808;4.402;2022-12-29T11:41:29;11.43;;;2.58;;
41875;SDS011;27555;50.808;4.402;2022-12-29T11:43:57;14.20;;;2.58;;
41875;SDS011;27555;50.808;4.402;2022-12-29T11:46:29;9.43;;;2.20;;
41875;SDS011;27555;50.808;4.402;2022-12-29T11:48:59;11.30;;;1.60;;
41875;SDS011;27555;50.808;4.402;2022-12-29T11:51:27;10.57;;;2.30;;
41875;SDS011;27555;50.808;4.402;2022-12-29T11:54:04;11.98;;;2.13;;
41875;SDS011;27555;50.808;4.402;2022-12-29T11:56:40;13.35;;;2.30;;
41875;SDS011;27555;50.808;4.402;2022-12-29T12:02:24;10.20;;;2.53;;
41875;SDS011;27555;50.808;4.402;2022-12-29T12:05:01;12.10;;;3.13;;
41875;SDS011;27555;50.808;4.402;2022-12-29T12:07:37;15.38;;;3.40;;
41875;SDS011;27555;50.808;4.402;2022-12-29T12:10:04;10.65;;;1.48;;
41875;SDS011;27555;50.808;4.402;2022-12-29T12:12:38;12.23;;;2.85;;
41875;SDS011;27555;50.808;4.402;2022-12-29T12:15:31;7.57;;;1.83;;
41875;SDS011;27555;50.808;4.402;2022-12-29T12:18:18;19.02;;;2.70;;
41875;SDS011;27555;50.808;4.402;2022-12-29T12:21:04;9.73;;;2.13;;
41875;SDS011;27555;50.808;4.402;2022-12-29T12:26:28;16.17;;;2.58;;
41875;SDS011;27555;50.808;4.402;2022-12-29T12:28:59;17.42;;;2.50;;
41875;SDS011;27555;50.808;4.402;2022-12-29T12:31:36;10.02;;;2.13;;
41875;SDS011;27555;50.808;4.402;2022-12-29T12:34:06;9.20;;;1.50;;
41875;SDS011;27555;50.808;4.402;2022-12-29T13:00:37;13.40;;;2.13;;
41875;SDS011;27555;50.808;4.402;2022-12-29T13:04:08;8.45;;;2.35;;
41875;SDS011;27555;50.808;4.402;2022-12-29T13:12:33;16.73;;;2.85;;
41875;SDS011;27555;50.808;4.402;2022-12-29T13:28:03;13.98;;;3.10;;
41875;SDS011;27555;50.808;4.402;2022-12-29T13:30:54;16.35;;;2.88;;
41875;SDS011;27555;50.808;4.402;2022-12-29T13:33:39;15.82;;;1.73;;
41875;SDS011;27555;50.808;4.402;2022-12-29T13:41:44;15.48;;;3.30;;
41875;SDS011;27555;50.808;4.402;2022-12-29T13:44:21;15.18;;;2.00;;
41875;SDS011;27555;50.808;4.402;2022-12-29T13:46:50;12.65;;;3.08;;
41875;SDS011;27555;50.808;4.402;2022-12-29T13:49:21;12.02;;;1.92;;
41875;SDS011;27555;50.808;4.402;2022-12-29T13:51:56;13.43;;;1.98;;
41875;SDS011;27555;50.808;4.402;2022-12-29T13:54:26;12.88;;;2.20;;
41875;SDS011;27555;50.808;4.402;2022-12-29T13:57:03;9.07;;;2.25;;
41875;SDS011;27555;50.808;4.402;2022-12-29T14:04:57;11.23;;;2.45;;
41875;SDS011;27555;50.808;4.402;2022-12-29T14:07:25;20.33;;;3.28;;
41875;SDS011;27555;50.808;4.402;2022-12-29T14:09:51;15.43;;;3.10;;
41875;SDS011;27555;50.808;4.402;2022-12-29T14:17:35;28.20;;;3.33;;
41875;SDS011;27555;50.808;4.402;2022-12-29T14:20:01;20.75;;;3.28;;
41875;SDS011;27555;50.808;4.402;2022-12-29T14:22:29;18.55;;;3.28;;
41875;SDS011;27555;50.808;4.402;2022-12-29T14:24:55;13.18;;;3.00;;
41875;SDS011;27555;50.808;4.402;2022-12-29T14:37:30;14.88;;;2.15;;
41875;SDS011;27555;50.808;4.402;2022-12-29T14:40:17;13.77;;;3.25;;
41875;SDS011;27555;50.808;4.402;2022-12-29T14:42:48;14.80;;;3.00;;
41875;SDS011;27555;50.808;4.402;2022-12-29T14:47:45;13.80;;;2.65;;
41875;SDS011;27555;50.808;4.402;2022-12-29T14:50:14;20.23;;;3.28;;
41875;SDS011;27555;50.808;4.402;2022-12-29T14:58:05;16.50;;;2.50;;
41875;SDS011;27555;50.808;4.402;2022-12-29T15:00:37;13.90;;;1.83;;
41875;SDS011;27555;50.808;4.402;2022-12-29T15:03:10;9.73;;;2.20;;
41875;SDS011;27555;50.808;4.402;2022-12-29T15:05:52;14.82;;;2.17;;
41875;SDS011;27555;50.808;4.402;2022-12-29T15:08:24;13.32;;;2.38;;
41875;SDS011;27555;50.808;4.402;2022-12-29T15:13:41;11.15;;;1.70;;
41875;SDS011;27555;50.808;4.402;2022-12-29T15:18:53;13.68;;;2.20;;
41875;SDS011;27555;50.808;4.402;2022-12-29T15:21:21;12.80;;;2.35;;
41875;SDS011;27555;50.808;4.402;2022-12-29T15:23:52;10.75;;;2.67;;
41875;SDS011;27555;50.808;4.402;2022-12-29T15:26:18;27.50;;;10.85;;
41875;SDS011;27555;50.808;4.402;2022-12-29T15:28:49;4.25;;;1.10;;
41875;SDS011;27555;50.808;4.402;2022-12-29T15:33:50;8.85;;;1.27;;
41875;SDS011;27555;50.808;4.402;2022-12-29T15:36:24;14.95;;;3.65;;
41875;SDS011;27555;50.808;4.402;2022-12-29T15:38:52;10.00;;;3.53;;
41875;SDS011;27555;50.808;4.402;2022-12-29T15:44:41;8.73;;;2.38;;
41875;SDS011;27555;50.808;4.402;2022-12-29T15:47:13;18.65;;;5.65;;
41875;SDS011;27555;50.808;4.402;2022-12-29T15:49:44;27.05;;;9.77;;
41875;SDS011;27555;50.808;4.402;2022-12-29T15:52:16;25.55;;;6.72;;
41875;SDS011;27555;50.808;4.402;2022-12-29T15:54:44;26.70;;;10.02;;
41875;SDS011;27555;50.808;4.402;2022-12-29T15:57:16;23.13;;;8.40;;
41875;SDS011;27555;50.808;4.402;2022-12-29T15:59:53;17.15;;;7.10;;
41875;SDS011;27555;50.808;4.402;2022-12-29T16:02:21;20.27;;;7.53;;
41875;SDS011;27555;50.808;4.402;2022-12-29T16:04:48;18.15;;;7.03;;
41875;SDS011;27555;50.808;4.402;2022-12-29T16:07:30;11.63;;;3.47;;
41875;SDS011;27555;50.808;4.402;2022-12-29T16:09:59;15.75;;;3.92;;
41875;SDS011;27555;50.808;4.402;2022-12-29T16:12:33;12.48;;;2.75;;
41875;SDS011;27555;50.808;4.402;2022-12-29T16:15:04;14.77;;;2.97;;
41875;SDS011;27555;50.808;4.402;2022-12-29T16:17:33;13.85;;;2.35;;
41875;SDS011;27555;50.808;4.402;2022-12-29T16:20:03;13.98;;;3.17;;
41875;SDS011;27555;50.808;4.402;2022-12-29T16:22:40;15.10;;;3.28;;
41875;SDS011;27555;50.808;4.402;2022-12-29T16:27:50;17.55;;;3.63;;
41875;SDS011;27555;50.808;4.402;2022-12-29T16:32:50;19.17;;;3.30;;
41875;SDS011;27555;50.808;4.402;2022-12-29T16:35:22;12.65;;;3.03;;
41875;SDS011;27555;50.808;4.402;2022-12-29T16:40:49;23.77;;;4.18;;
41875;SDS011;27555;50.808;4.402;2022-12-29T16:43:33;16.83;;;4.13;;
41875;SDS011;27555;50.808;4.402;2022-12-29T16:49:02;16.88;;;3.60;;
41875;SDS011;27555;50.808;4.402;2022-12-29T16:51:30;18.88;;;3.60;;
41875;SDS011;27555;50.808;4.402;2022-12-29T16:53:57;14.18;;;3.55;;
41875;SDS011;27555;50.808;4.402;2022-12-29T16:56:25;25.08;;;4.63;;
41875;SDS011;27555;50.808;4.402;2022-12-29T16:59:00;15.48;;;3.00;;
41875;SDS011;27555;50.808;4.402;2022-12-29T17:01:30;15.13;;;3.47;;
41875;SDS011;27555;50.808;4.402;2022-12-29T17:04:00;9.00;;;2.10;;
41875;SDS011;27555;50.808;4.402;2022-12-29T17:06:33;16.25;;;2.38;;
41875;SDS011;27555;50.808;4.402;2022-12-29T17:08:59;15.70;;;2.65;;
41875;SDS011;27555;50.808;4.402;2022-12-29T17:11:31;14.68;;;2.95;;
41875;SDS011;27555;50.808;4.402;2022-12-29T17:14:23;8.88;;;2.47;;
41875;SDS011;27555;50.808;4.402;2022-12-29T17:17:26;14.60;;;2.80;;
41875;SDS011;27555;50.808;4.402;2022-12-29T17:20:00;14.18;;;2.95;;
41875;SDS011;27555;50.808;4.402;2022-12-29T17:22:46;20.88;;;3.00;;
41875;SDS011;27555;50.808;4.402;2022-12-29T17:25:12;12.70;;;2.95;;
41875;SDS011;27555;50.808;4.402;2022-12-29T17:27:43;14.55;;;2.85;;
41875;SDS011;27555;50.808;4.402;2022-12-29T17:30:15;17.92;;;4.45;;
41875;SDS011;27555;50.808;4.402;2022-12-29T17:32:47;9.07;;;1.52;;
41875;SDS011;27555;50.808;4.402;2022-12-29T17:35:17;20.33;;;3.78;;
41875;SDS011;27555;50.808;4.402;2022-12-29T17:37:44;20.92;;;3.28;;
41875;SDS011;27555;50.808;4.402;2022-12-29T17:40:20;19.73;;;2.40;;
41875;SDS011;27555;50.808;4.402;2022-12-29T17:42:51;10.15;;;2.60;;
41875;SDS011;27555;50.808;4.402;2022-12-29T17:45:22;12.48;;;3.17;;
41875;SDS011;27555;50.808;4.402;2022-12-29T17:47:52;14.20;;;2.95;;
41875;SDS011;27555;50.808;4.402;2022-12-29T17:50:19;12.95;;;2.53;;
41875;SDS011;27555;50.808;4.402;2022-12-29T17:53:06;12.77;;;2.20;;